Brooklyn, Ohio
Current Conditions -  °F | °C
As of 5:53 PM on Tuesday 25 Nov 2014 (Local Time) from KBKL Reporting Station
Overcast Overcast  
Wind Chill: 24°   Ceiling: 2200
Heat Index: 35°   Visibility: 10mi
Dew Point: 27°   Wind: 18mph
Humidity: 72%   Direction: 250°WSW
Pressure: 30.14"   Gusts: NA
Location:  41.44°N, 81.74°W
Report Text: KBKL 252253Z 25016KT 10SM BKN022 OVC029 02/M03 A3014 RMK AO2 SLP213 T00171028
Loading
Personal Weather Stations






























Interactive Weather Map New forecast layout! Learn more

10-Day Weather Forecast

Advertisements
Track Severe Weather on mobile